sensor_id;sensor_type;location;lat;lon;timestamp;P1;durP1;ratioP1;P2;durP2;ratioP2
23573;SDS011;11965;53.640;10.050;2022-11-15T00:00:06;35.63;;;34.72;;
23573;SDS011;11965;53.640;10.050;2022-11-15T00:02:54;36.09;;;35.06;;
23573;SDS011;11965;53.640;10.050;2022-11-15T00:05:38;35.28;;;34.33;;
23573;SDS011;11965;53.640;10.050;2022-11-15T00:08:22;35.09;;;34.36;;
23573;SDS011;11965;53.640;10.050;2022-11-15T00:11:08;35.02;;;34.22;;
23573;SDS011;11965;53.640;10.050;2022-11-15T00:13:55;35.59;;;34.24;;
23573;SDS011;11965;53.640;10.050;2022-11-15T00:16:40;35.90;;;34.78;;
23573;SDS011;11965;53.640;10.050;2022-11-15T00:19:25;36.06;;;34.90;;
23573;SDS011;11965;53.640;10.050;2022-11-15T00:22:09;36.70;;;35.68;;
23573;SDS011;11965;53.640;10.050;2022-11-15T00:24:53;36.35;;;35.33;;
23573;SDS011;11965;53.640;10.050;2022-11-15T00:27:37;35.47;;;34.47;;
23573;SDS011;11965;53.640;10.050;2022-11-15T00:30:21;34.87;;;34.00;;
23573;SDS011;11965;53.640;10.050;2022-11-15T00:33:06;35.09;;;34.10;;
23573;SDS011;11965;53.640;10.050;2022-11-15T00:35:51;36.11;;;34.90;;
23573;SDS011;11965;53.640;10.050;2022-11-15T00:38:35;35.24;;;34.02;;
23573;SDS011;11965;53.640;10.050;2022-11-15T00:41:21;34.64;;;33.83;;
23573;SDS011;11965;53.640;10.050;2022-11-15T00:44:05;34.42;;;33.65;;
23573;SDS011;11965;53.640;10.050;2022-11-15T00:46:50;35.77;;;34.66;;
23573;SDS011;11965;53.640;10.050;2022-11-15T00:49:34;35.23;;;34.29;;
23573;SDS011;11965;53.640;10.050;2022-11-15T00:52:18;36.05;;;35.18;;
23573;SDS011;11965;53.640;10.050;2022-11-15T00:55:02;35.39;;;34.32;;
23573;SDS011;11965;53.640;10.050;2022-11-15T00:57:47;35.30;;;34.25;;
23573;SDS011;11965;53.640;10.050;2022-11-15T01:00:31;35.31;;;34.39;;
23573;SDS011;11965;53.640;10.050;2022-11-15T01:03:15;34.47;;;33.68;;
23573;SDS011;11965;53.640;10.050;2022-11-15T01:06:00;34.48;;;33.69;;
23573;SDS011;11965;53.640;10.050;2022-11-15T01:08:44;35.34;;;34.44;;
23573;SDS011;11965;53.640;10.050;2022-11-15T01:11:28;34.28;;;33.61;;
23573;SDS011;11965;53.640;10.050;2022-11-15T01:14:13;35.43;;;34.42;;
23573;SDS011;11965;53.640;10.050;2022-11-15T01:16:57;34.74;;;33.92;;
23573;SDS011;11965;53.640;10.050;2022-11-15T01:19:41;35.60;;;34.60;;
23573;SDS011;11965;53.640;10.050;2022-11-15T01:22:25;36.22;;;34.90;;
23573;SDS011;11965;53.640;10.050;2022-11-15T01:25:10;34.90;;;33.86;;
23573;SDS011;11965;53.640;10.050;2022-11-15T01:27:54;35.68;;;34.61;;
23573;SDS011;11965;53.640;10.050;2022-11-15T01:30:38;34.19;;;33.24;;
23573;SDS011;11965;53.640;10.050;2022-11-15T01:33:22;34.86;;;34.04;;
23573;SDS011;11965;53.640;10.050;2022-11-15T01:36:07;34.97;;;34.07;;
23573;SDS011;11965;53.640;10.050;2022-11-15T01:38:55;34.81;;;34.16;;
23573;SDS011;11965;53.640;10.050;2022-11-15T01:41:41;34.77;;;33.75;;
23573;SDS011;11965;53.640;10.050;2022-11-15T01:50:22;34.11;;;33.00;;
23573;SDS011;11965;53.640;10.050;2022-11-15T01:53:11;34.11;;;33.07;;
23573;SDS011;11965;53.640;10.050;2022-11-15T01:55:56;33.03;;;32.25;;
23573;SDS011;11965;53.640;10.050;2022-11-15T01:58:42;33.38;;;32.75;;
23573;SDS011;11965;53.640;10.050;2022-11-15T02:01:29;34.36;;;33.28;;
23573;SDS011;11965;53.640;10.050;2022-11-15T02:04:17;33.57;;;32.73;;
23573;SDS011;11965;53.640;10.050;2022-11-15T02:07:07;33.70;;;32.77;;
23573;SDS011;11965;53.640;10.050;2022-11-15T02:09:58;34.04;;;33.03;;
23573;SDS011;11965;53.640;10.050;2022-11-15T02:12:56;34.51;;;33.31;;
23573;SDS011;11965;53.640;10.050;2022-11-15T02:15:48;33.67;;;32.55;;
23573;SDS011;11965;53.640;10.050;2022-11-15T02:28:16;33.21;;;32.13;;
23573;SDS011;11965;53.640;10.050;2022-11-15T02:37:39;33.36;;;32.29;;
23573;SDS011;11965;53.640;10.050;2022-11-15T02:43:38;34.17;;;33.03;;
23573;SDS011;11965;53.640;10.050;2022-11-15T02:46:45;33.29;;;32.49;;
23573;SDS011;11965;53.640;10.050;2022-11-15T02:50:01;33.79;;;32.70;;
23573;SDS011;11965;53.640;10.050;2022-11-15T02:52:51;33.37;;;32.33;;
23573;SDS011;11965;53.640;10.050;2022-11-15T02:55:46;33.53;;;32.42;;
23573;SDS011;11965;53.640;10.050;2022-11-15T03:01:41;34.03;;;32.96;;
23573;SDS011;11965;53.640;10.050;2022-11-15T03:04:58;33.42;;;32.60;;
23573;SDS011;11965;53.640;10.050;2022-11-15T03:11:11;33.31;;;32.45;;
23573;SDS011;11965;53.640;10.050;2022-11-15T03:17:24;33.81;;;32.40;;
23573;SDS011;11965;53.640;10.050;2022-11-15T03:20:14;33.10;;;32.32;;
23573;SDS011;11965;53.640;10.050;2022-11-15T03:23:06;33.80;;;32.53;;
23573;SDS011;11965;53.640;10.050;2022-11-15T03:25:53;32.27;;;31.23;;
23573;SDS011;11965;53.640;10.050;2022-11-15T03:31:53;32.32;;;31.27;;
23573;SDS011;11965;53.640;10.050;2022-11-15T03:34:44;32.12;;;31.20;;
23573;SDS011;11965;53.640;10.050;2022-11-15T03:37:44;31.34;;;30.50;;
23573;SDS011;11965;53.640;10.050;2022-11-15T03:40:39;31.86;;;30.90;;
23573;SDS011;11965;53.640;10.050;2022-11-15T03:46:54;31.36;;;30.41;;
23573;SDS011;11965;53.640;10.050;2022-11-15T03:49:53;31.31;;;30.50;;
23573;SDS011;11965;53.640;10.050;2022-11-15T03:52:47;30.29;;;29.28;;
23573;SDS011;11965;53.640;10.050;2022-11-15T03:55:33;31.24;;;30.18;;
23573;SDS011;11965;53.640;10.050;2022-11-15T03:58:17;29.86;;;28.97;;
23573;SDS011;11965;53.640;10.050;2022-11-15T04:01:01;30.56;;;29.58;;
23573;SDS011;11965;53.640;10.050;2022-11-15T04:03:45;29.28;;;28.84;;
23573;SDS011;11965;53.640;10.050;2022-11-15T04:06:30;29.15;;;28.31;;
23573;SDS011;11965;53.640;10.050;2022-11-15T04:09:14;30.05;;;29.19;;
23573;SDS011;11965;53.640;10.050;2022-11-15T04:11:58;29.65;;;28.77;;
23573;SDS011;11965;53.640;10.050;2022-11-15T04:14:42;29.21;;;28.27;;
23573;SDS011;11965;53.640;10.050;2022-11-15T04:17:47;29.21;;;28.32;;
23573;SDS011;11965;53.640;10.050;2022-11-15T04:20:34;28.42;;;27.73;;
23573;SDS011;11965;53.640;10.050;2022-11-15T04:23:37;27.69;;;27.03;;
23573;SDS011;11965;53.640;10.050;2022-11-15T04:26:50;27.62;;;26.97;;
23573;SDS011;11965;53.640;10.050;2022-11-15T04:29:34;28.33;;;27.54;;
23573;SDS011;11965;53.640;10.050;2022-11-15T04:32:18;28.01;;;27.11;;
23573;SDS011;11965;53.640;10.050;2022-11-15T04:35:02;27.69;;;27.03;;
23573;SDS011;11965;53.640;10.050;2022-11-15T04:37:47;27.65;;;26.44;;
23573;SDS011;11965;53.640;10.050;2022-11-15T04:40:31;27.99;;;27.00;;
23573;SDS011;11965;53.640;10.050;2022-11-15T04:43:16;26.46;;;25.77;;
23573;SDS011;11965;53.640;10.050;2022-11-15T04:46:00;27.41;;;26.44;;
23573;SDS011;11965;53.640;10.050;2022-11-15T04:48:44;27.11;;;26.40;;
23573;SDS011;11965;53.640;10.050;2022-11-15T04:51:28;28.08;;;27.04;;
23573;SDS011;11965;53.640;10.050;2022-11-15T04:54:12;28.01;;;26.92;;
23573;SDS011;11965;53.640;10.050;2022-11-15T04:56:56;27.66;;;26.73;;
23573;SDS011;11965;53.640;10.050;2022-11-15T04:59:40;26.57;;;25.97;;
23573;SDS011;11965;53.640;10.050;2022-11-15T05:02:24;27.07;;;26.13;;
23573;SDS011;11965;53.640;10.050;2022-11-15T05:05:29;27.13;;;26.35;;
23573;SDS011;11965;53.640;10.050;2022-11-15T05:08:13;26.85;;;25.99;;
23573;SDS011;11965;53.640;10.050;2022-11-15T05:10:57;25.91;;;25.00;;
23573;SDS011;11965;53.640;10.050;2022-11-15T05:13:41;26.71;;;25.93;;
23573;SDS011;11965;53.640;10.050;2022-11-15T05:16:25;26.10;;;25.57;;
23573;SDS011;11965;53.640;10.050;2022-11-15T05:19:10;25.77;;;25.10;;
23573;SDS011;11965;53.640;10.050;2022-11-15T05:21:54;26.25;;;25.23;;
23573;SDS011;11965;53.640;10.050;2022-11-15T05:24:38;25.70;;;25.11;;
23573;SDS011;11965;53.640;10.050;2022-11-15T05:27:22;25.52;;;24.80;;
23573;SDS011;11965;53.640;10.050;2022-11-15T05:30:06;25.68;;;24.77;;
23573;SDS011;11965;53.640;10.050;2022-11-15T05:32:51;26.04;;;25.26;;
23573;SDS011;11965;53.640;10.050;2022-11-15T05:35:37;27.68;;;27.15;;
23573;SDS011;11965;53.640;10.050;2022-11-15T05:38:25;28.72;;;27.95;;
23573;SDS011;11965;53.640;10.050;2022-11-15T05:41:09;27.82;;;27.15;;
23573;SDS011;11965;53.640;10.050;2022-11-15T05:43:55;28.31;;;27.57;;
23573;SDS011;11965;53.640;10.050;2022-11-15T05:46:40;26.58;;;25.89;;
23573;SDS011;11965;53.640;10.050;2022-11-15T05:49:28;26.83;;;26.02;;
23573;SDS011;11965;53.640;10.050;2022-11-15T05:52:19;26.42;;;25.89;;
23573;SDS011;11965;53.640;10.050;2022-11-15T05:55:08;28.33;;;27.52;;
23573;SDS011;11965;53.640;10.050;2022-11-15T05:57:53;26.29;;;25.75;;
23573;SDS011;11965;53.640;10.050;2022-11-15T06:00:38;27.12;;;26.24;;
23573;SDS011;11965;53.640;10.050;2022-11-15T06:03:23;26.97;;;26.18;;
23573;SDS011;11965;53.640;10.050;2022-11-15T06:06:07;25.73;;;25.26;;
23573;SDS011;11965;53.640;10.050;2022-11-15T06:08:51;25.17;;;24.84;;
23573;SDS011;11965;53.640;10.050;2022-11-15T06:11:35;26.17;;;25.48;;
23573;SDS011;11965;53.640;10.050;2022-11-15T06:14:19;25.66;;;25.15;;
23573;SDS011;11965;53.640;10.050;2022-11-15T06:17:04;25.61;;;25.24;;
23573;SDS011;11965;53.640;10.050;2022-11-15T06:19:48;25.48;;;25.02;;
23573;SDS011;11965;53.640;10.050;2022-11-15T06:22:32;26.17;;;25.37;;
23573;SDS011;11965;53.640;10.050;2022-11-15T06:25:16;26.53;;;25.70;;
23573;SDS011;11965;53.640;10.050;2022-11-15T06:28:00;26.82;;;25.91;;
23573;SDS011;11965;53.640;10.050;2022-11-15T06:30:44;26.07;;;25.32;;
23573;SDS011;11965;53.640;10.050;2022-11-15T06:33:29;25.18;;;24.68;;
23573;SDS011;11965;53.640;10.050;2022-11-15T06:36:13;25.15;;;24.66;;
23573;SDS011;11965;53.640;10.050;2022-11-15T06:39:00;24.61;;;23.97;;
23573;SDS011;11965;53.640;10.050;2022-11-15T06:41:44;23.90;;;23.55;;
23573;SDS011;11965;53.640;10.050;2022-11-15T06:44:28;25.33;;;24.82;;
23573;SDS011;11965;53.640;10.050;2022-11-15T06:47:12;25.56;;;24.88;;
23573;SDS011;11965;53.640;10.050;2022-11-15T06:49:57;24.93;;;24.43;;
23573;SDS011;11965;53.640;10.050;2022-11-15T06:52:41;25.10;;;24.61;;
23573;SDS011;11965;53.640;10.050;2022-11-15T06:55:25;24.71;;;24.00;;
23573;SDS011;11965;53.640;10.050;2022-11-15T06:58:09;24.50;;;23.95;;
23573;SDS011;11965;53.640;10.050;2022-11-15T07:00:53;24.33;;;23.84;;
23573;SDS011;11965;53.640;10.050;2022-11-15T07:03:42;24.20;;;24.04;;
23573;SDS011;11965;53.640;10.050;2022-11-15T07:06:26;24.66;;;24.06;;
23573;SDS011;11965;53.640;10.050;2022-11-15T07:09:10;25.15;;;24.65;;
23573;SDS011;11965;53.640;10.050;2022-11-15T07:11:54;25.16;;;24.44;;
23573;SDS011;11965;53.640;10.050;2022-11-15T07:14:39;24.84;;;23.98;;
23573;SDS011;11965;53.640;10.050;2022-11-15T07:17:23;23.79;;;23.70;;
23573;SDS011;11965;53.640;10.050;2022-11-15T07:20:07;23.26;;;23.17;;
23573;SDS011;11965;53.640;10.050;2022-11-15T07:22:58;24.85;;;24.26;;
23573;SDS011;11965;53.640;10.050;2022-11-15T07:25:44;25.08;;;24.33;;
23573;SDS011;11965;53.640;10.050;2022-11-15T07:28:28;24.60;;;24.31;;
23573;SDS011;11965;53.640;10.050;2022-11-15T07:31:13;24.17;;;23.79;;
23573;SDS011;11965;53.640;10.050;2022-11-15T07:33:57;23.79;;;23.60;;
23573;SDS011;11965;53.640;10.050;2022-11-15T07:36:41;24.09;;;23.87;;
23573;SDS011;11965;53.640;10.050;2022-11-15T07:39:26;25.77;;;25.08;;
23573;SDS011;11965;53.640;10.050;2022-11-15T07:42:11;24.47;;;23.97;;
23573;SDS011;11965;53.640;10.050;2022-11-15T07:45:13;23.73;;;23.46;;
23573;SDS011;11965;53.640;10.050;2022-11-15T07:47:58;25.02;;;24.28;;
23573;SDS011;11965;53.640;10.050;2022-11-15T07:50:42;24.76;;;24.07;;
23573;SDS011;11965;53.640;10.050;2022-11-15T07:53:27;23.98;;;23.73;;
23573;SDS011;11965;53.640;10.050;2022-11-15T07:56:11;22.80;;;22.65;;
23573;SDS011;11965;53.640;10.050;2022-11-15T07:58:56;23.62;;;23.25;;
23573;SDS011;11965;53.640;10.050;2022-11-15T08:01:41;24.10;;;23.60;;
23573;SDS011;11965;53.640;10.050;2022-11-15T08:04:25;24.05;;;23.63;;
23573;SDS011;11965;53.640;10.050;2022-11-15T08:07:09;23.13;;;22.98;;
23573;SDS011;11965;53.640;10.050;2022-11-15T08:09:53;23.84;;;23.40;;
23573;SDS011;11965;53.640;10.050;2022-11-15T08:12:39;24.71;;;24.08;;
23573;SDS011;11965;53.640;10.050;2022-11-15T08:15:23;23.30;;;22.93;;
23573;SDS011;11965;53.640;10.050;2022-11-15T08:18:12;22.58;;;22.34;;
23573;SDS011;11965;53.640;10.050;2022-11-15T08:20:58;23.90;;;23.34;;
23573;SDS011;11965;53.640;10.050;2022-11-15T08:23:44;22.52;;;22.28;;
23573;SDS011;11965;53.640;10.050;2022-11-15T08:26:28;23.28;;;22.76;;
23573;SDS011;11965;53.640;10.050;2022-11-15T08:29:13;23.58;;;22.93;;
23573;SDS011;11965;53.640;10.050;2022-11-15T08:31:57;23.94;;;23.45;;
23573;SDS011;11965;53.640;10.050;2022-11-15T08:34:41;23.39;;;22.89;;
23573;SDS011;11965;53.640;10.050;2022-11-15T08:37:26;23.84;;;23.12;;
23573;SDS011;11965;53.640;10.050;2022-11-15T08:40:10;22.98;;;22.60;;
23573;SDS011;11965;53.640;10.050;2022-11-15T08:42:54;22.16;;;21.87;;
23573;SDS011;11965;53.640;10.050;2022-11-15T08:45:39;23.14;;;22.79;;
23573;SDS011;11965;53.640;10.050;2022-11-15T08:48:23;22.20;;;22.01;;
23573;SDS011;11965;53.640;10.050;2022-11-15T08:51:07;22.38;;;21.94;;
23573;SDS011;11965;53.640;10.050;2022-11-15T08:53:51;22.33;;;22.06;;
23573;SDS011;11965;53.640;10.050;2022-11-15T08:56:35;22.22;;;21.90;;
23573;SDS011;11965;53.640;10.050;2022-11-15T08:59:20;22.28;;;22.06;;
23573;SDS011;11965;53.640;10.050;2022-11-15T09:02:04;22.70;;;22.45;;
23573;SDS011;11965;53.640;10.050;2022-11-15T09:04:49;22.10;;;21.93;;
23573;SDS011;11965;53.640;10.050;2022-11-15T09:07:33;22.70;;;22.58;;
23573;SDS011;11965;53.640;10.050;2022-11-15T09:10:17;21.73;;;21.43;;
23573;SDS011;11965;53.640;10.050;2022-11-15T09:13:01;22.07;;;21.98;;
23573;SDS011;11965;53.640;10.050;2022-11-15T09:15:46;22.52;;;22.19;;
23573;SDS011;11965;53.640;10.050;2022-11-15T09:18:31;22.45;;;22.10;;
23573;SDS011;11965;53.640;10.050;2022-11-15T09:21:15;22.36;;;21.89;;
23573;SDS011;11965;53.640;10.050;2022-11-15T09:24:00;21.53;;;21.42;;
23573;SDS011;11965;53.640;10.050;2022-11-15T09:26:44;21.27;;;21.27;;
23573;SDS011;11965;53.640;10.050;2022-11-15T09:29:28;21.74;;;21.47;;
23573;SDS011;11965;53.640;10.050;2022-11-15T09:32:12;21.41;;;21.27;;
23573;SDS011;11965;53.640;10.050;2022-11-15T09:34:56;21.31;;;21.01;;
23573;SDS011;11965;53.640;10.050;2022-11-15T09:37:41;21.27;;;21.00;;
23573;SDS011;11965;53.640;10.050;2022-11-15T09:40:25;21.16;;;20.90;;
23573;SDS011;11965;53.640;10.050;2022-11-15T09:49:13;20.72;;;20.50;;
23573;SDS011;11965;53.640;10.050;2022-11-15T09:51:54;21.40;;;20.88;;
23573;SDS011;11965;53.640;10.050;2022-11-15T09:57:09;20.98;;;20.78;;
23573;SDS011;11965;53.640;10.050;2022-11-15T09:59:51;21.04;;;21.04;;
23573;SDS011;11965;53.640;10.050;2022-11-15T10:05:27;20.77;;;20.40;;
23573;SDS011;11965;53.640;10.050;2022-11-15T10:10:38;19.60;;;19.57;;
23573;SDS011;11965;53.640;10.050;2022-11-15T10:13:06;20.10;;;19.71;;
23573;SDS011;11965;53.640;10.050;2022-11-15T10:15:47;20.90;;;20.26;;
23573;SDS011;11965;53.640;10.050;2022-11-15T10:20:48;19.75;;;19.75;;
23573;SDS011;11965;53.640;10.050;2022-11-15T10:23:15;19.48;;;19.37;;
23573;SDS011;11965;53.640;10.050;2022-11-15T10:25:44;20.55;;;20.12;;
23573;SDS011;11965;53.640;10.050;2022-11-15T10:30:47;19.51;;;19.32;;
23573;SDS011;11965;53.640;10.050;2022-11-15T10:41:13;19.93;;;19.83;;
23573;SDS011;11965;53.640;10.050;2022-11-15T10:43:39;19.89;;;19.49;;
23573;SDS011;11965;53.640;10.050;2022-11-15T10:46:23;18.40;;;18.32;;
23573;SDS011;11965;53.640;10.050;2022-11-15T10:48:49;18.82;;;18.57;;
23573;SDS011;11965;53.640;10.050;2022-11-15T10:51:49;18.52;;;18.42;;
23573;SDS011;11965;53.640;10.050;2022-11-15T10:54:17;18.09;;;18.09;;
23573;SDS011;11965;53.640;10.050;2022-11-15T10:57:04;18.03;;;18.03;;
23573;SDS011;11965;53.640;10.050;2022-11-15T10:59:45;17.84;;;17.83;;
23573;SDS011;11965;53.640;10.050;2022-11-15T11:02:26;17.47;;;17.43;;
23573;SDS011;11965;53.640;10.050;2022-11-15T11:04:53;17.59;;;17.43;;
23573;SDS011;11965;53.640;10.050;2022-11-15T11:07:21;16.93;;;16.78;;
23573;SDS011;11965;53.640;10.050;2022-11-15T11:09:56;15.98;;;15.75;;
23573;SDS011;11965;53.640;10.050;2022-11-15T11:12:27;16.82;;;16.68;;
23573;SDS011;11965;53.640;10.050;2022-11-15T11:14:55;17.02;;;16.88;;
23573;SDS011;11965;53.640;10.050;2022-11-15T11:20:26;15.90;;;15.84;;
23573;SDS011;11965;53.640;10.050;2022-11-15T11:40:25;15.32;;;15.32;;
23573;SDS011;11965;53.640;10.050;2022-11-15T11:42:58;14.77;;;14.77;;
23573;SDS011;11965;53.640;10.050;2022-11-15T11:45:54;15.05;;;15.03;;
23573;SDS011;11965;53.640;10.050;2022-11-15T11:48:44;15.31;;;15.19;;
23573;SDS011;11965;53.640;10.050;2022-11-15T11:54:06;15.15;;;15.15;;
23573;SDS011;11965;53.640;10.050;2022-11-15T11:56:43;15.16;;;15.14;;
23573;SDS011;11965;53.640;10.050;2022-11-15T11:59:16;15.02;;;14.92;;
23573;SDS011;11965;53.640;10.050;2022-11-15T12:02:02;15.11;;;15.07;;
23573;SDS011;11965;53.640;10.050;2022-11-15T12:04:51;15.05;;;15.05;;
23573;SDS011;11965;53.640;10.050;2022-11-15T12:07:30;15.21;;;15.19;;
23573;SDS011;11965;53.640;10.050;2022-11-15T12:10:16;14.81;;;14.81;;
23573;SDS011;11965;53.640;10.050;2022-11-15T12:15:26;14.88;;;14.84;;
23573;SDS011;11965;53.640;10.050;2022-11-15T12:18:04;15.20;;;15.12;;
23573;SDS011;11965;53.640;10.050;2022-11-15T12:20:39;15.39;;;15.19;;
23573;SDS011;11965;53.640;10.050;2022-11-15T12:23:24;16.39;;;16.16;;
23573;SDS011;11965;53.640;10.050;2022-11-15T12:31:05;15.65;;;15.53;;
23573;SDS011;11965;53.640;10.050;2022-11-15T12:33:42;16.05;;;16.05;;
23573;SDS011;11965;53.640;10.050;2022-11-15T12:36:12;14.62;;;14.62;;
23573;SDS011;11965;53.640;10.050;2022-11-15T12:39:00;14.08;;;14.08;;
23573;SDS011;11965;53.640;10.050;2022-11-15T12:41:35;14.74;;;14.61;;
23573;SDS011;11965;53.640;10.050;2022-11-15T12:44:02;14.67;;;14.53;;
23573;SDS011;11965;53.640;10.050;2022-11-15T12:51:21;14.36;;;14.34;;
23573;SDS011;11965;53.640;10.050;2022-11-15T12:59:48;14.12;;;14.00;;
23573;SDS011;11965;53.640;10.050;2022-11-15T13:02:24;13.97;;;13.97;;
23573;SDS011;11965;53.640;10.050;2022-11-15T13:04:53;13.90;;;13.74;;
23573;SDS011;11965;53.640;10.050;2022-11-15T13:27:51;13.35;;;13.35;;
23573;SDS011;11965;53.640;10.050;2022-11-15T13:30:27;13.54;;;13.53;;
23573;SDS011;11965;53.640;10.050;2022-11-15T13:32:55;12.88;;;12.67;;
23573;SDS011;11965;53.640;10.050;2022-11-15T13:35:30;13.02;;;13.02;;
23573;SDS011;11965;53.640;10.050;2022-11-15T13:38:03;12.87;;;12.87;;
23573;SDS011;11965;53.640;10.050;2022-11-15T13:40:34;13.10;;;13.08;;
23573;SDS011;11965;53.640;10.050;2022-11-15T13:48:41;13.42;;;13.39;;
23573;SDS011;11965;53.640;10.050;2022-11-15T13:51:22;12.92;;;12.91;;
23573;SDS011;11965;53.640;10.050;2022-11-15T13:53:56;13.31;;;13.30;;
23573;SDS011;11965;53.640;10.050;2022-11-15T13:56:33;13.81;;;13.77;;
23573;SDS011;11965;53.640;10.050;2022-11-15T13:59:07;17.33;;;17.18;;
23573;SDS011;11965;53.640;10.050;2022-11-15T14:01:35;15.64;;;15.51;;
23573;SDS011;11965;53.640;10.050;2022-11-15T14:04:01;14.02;;;14.02;;
23573;SDS011;11965;53.640;10.050;2022-11-15T14:06:28;13.80;;;13.79;;
23573;SDS011;11965;53.640;10.050;2022-11-15T14:11:36;13.28;;;13.28;;
23573;SDS011;11965;53.640;10.050;2022-11-15T14:14:14;12.66;;;12.61;;
23573;SDS011;11965;53.640;10.050;2022-11-15T14:16:42;12.92;;;12.88;;
23573;SDS011;11965;53.640;10.050;2022-11-15T14:19:13;12.76;;;12.73;;
23573;SDS011;11965;53.640;10.050;2022-11-15T14:22:07;12.86;;;12.82;;
23573;SDS011;11965;53.640;10.050;2022-11-15T14:24:35;12.80;;;12.79;;
23573;SDS011;11965;53.640;10.050;2022-11-15T14:29:50;12.31;;;12.31;;
23573;SDS011;11965;53.640;10.050;2022-11-15T14:32:20;12.90;;;12.90;;
23573;SDS011;11965;53.640;10.050;2022-11-15T14:34:56;12.82;;;12.82;;
23573;SDS011;11965;53.640;10.050;2022-11-15T14:37:26;12.94;;;12.94;;
23573;SDS011;11965;53.640;10.050;2022-11-15T14:39:56;12.91;;;12.83;;
23573;SDS011;11965;53.640;10.050;2022-11-15T14:42:22;12.48;;;12.48;;
23573;SDS011;11965;53.640;10.050;2022-11-15T14:44:48;12.73;;;12.73;;
23573;SDS011;11965;53.640;10.050;2022-11-15T14:47:14;12.50;;;12.46;;
23573;SDS011;11965;53.640;10.050;2022-11-15T14:49:40;12.29;;;12.25;;
23573;SDS011;11965;53.640;10.050;2022-11-15T14:54:49;12.72;;;12.72;;
23573;SDS011;11965;53.640;10.050;2022-11-15T14:57:15;12.72;;;12.72;;
23573;SDS011;11965;53.640;10.050;2022-11-15T14:59:41;12.40;;;12.40;;
23573;SDS011;11965;53.640;10.050;2022-11-15T15:02:25;12.63;;;12.63;;
23573;SDS011;11965;53.640;10.050;2022-11-15T15:04:52;12.93;;;12.93;;
23573;SDS011;11965;53.640;10.050;2022-11-15T15:07:18;12.52;;;12.52;;
23573;SDS011;11965;53.640;10.050;2022-11-15T15:09:45;12.70;;;12.68;;
23573;SDS011;11965;53.640;10.050;2022-11-15T15:12:18;12.74;;;12.74;;
23573;SDS011;11965;53.640;10.050;2022-11-15T15:14:46;12.67;;;12.62;;
23573;SDS011;11965;53.640;10.050;2022-11-15T15:17:14;12.91;;;12.90;;
23573;SDS011;11965;53.640;10.050;2022-11-15T15:19:40;12.93;;;12.92;;
23573;SDS011;11965;53.640;10.050;2022-11-15T15:22:09;12.94;;;12.77;;
23573;SDS011;11965;53.640;10.050;2022-11-15T15:24:40;12.91;;;12.91;;
23573;SDS011;11965;53.640;10.050;2022-11-15T15:27:07;12.66;;;12.66;;
23573;SDS011;11965;53.640;10.050;2022-11-15T15:29:33;13.16;;;13.16;;
23573;SDS011;11965;53.640;10.050;2022-11-15T15:31:59;13.04;;;13.04;;
23573;SDS011;11965;53.640;10.050;2022-11-15T15:34:24;14.00;;;13.95;;
23573;SDS011;11965;53.640;10.050;2022-11-15T15:37:05;14.96;;;14.65;;
23573;SDS011;11965;53.640;10.050;2022-11-15T15:39:32;14.70;;;14.70;;
23573;SDS011;11965;53.640;10.050;2022-11-15T15:41:58;14.01;;;13.94;;
23573;SDS011;11965;53.640;10.050;2022-11-15T15:44:23;14.72;;;14.69;;
23573;SDS011;11965;53.640;10.050;2022-11-15T15:46:49;13.76;;;13.76;;
23573;SDS011;11965;53.640;10.050;2022-11-15T15:49:15;13.94;;;13.94;;
23573;SDS011;11965;53.640;10.050;2022-11-15T15:51:40;15.68;;;15.64;;
23573;SDS011;11965;53.640;10.050;2022-11-15T15:54:06;18.10;;;17.73;;
23573;SDS011;11965;53.640;10.050;2022-11-15T15:56:31;16.29;;;15.86;;
23573;SDS011;11965;53.640;10.050;2022-11-15T15:58:57;16.06;;;15.92;;
23573;SDS011;11965;53.640;10.050;2022-11-15T16:01:23;21.20;;;21.06;;
23573;SDS011;11965;53.640;10.050;2022-11-15T16:03:49;23.62;;;23.56;;
23573;SDS011;11965;53.640;10.050;2022-11-15T16:09:04;19.49;;;19.31;;
23573;SDS011;11965;53.640;10.050;2022-11-15T16:11:30;16.78;;;16.69;;
23573;SDS011;11965;53.640;10.050;2022-11-15T16:13:56;16.27;;;16.18;;
23573;SDS011;11965;53.640;10.050;2022-11-15T16:16:22;15.88;;;15.83;;
23573;SDS011;11965;53.640;10.050;2022-11-15T16:18:47;15.48;;;15.48;;
23573;SDS011;11965;53.640;10.050;2022-11-15T16:21:13;15.51;;;15.49;;
23573;SDS011;11965;53.640;10.050;2022-11-15T16:23:39;14.95;;;14.95;;
23573;SDS011;11965;53.640;10.050;2022-11-15T16:26:26;15.10;;;15.09;;
23573;SDS011;11965;53.640;10.050;2022-11-15T16:28:51;15.09;;;14.94;;
23573;SDS011;11965;53.640;10.050;2022-11-15T16:31:18;14.62;;;14.47;;
23573;SDS011;11965;53.640;10.050;2022-11-15T16:33:46;13.97;;;13.97;;
23573;SDS011;11965;53.640;10.050;2022-11-15T16:36:21;14.65;;;14.62;;
23573;SDS011;11965;53.640;10.050;2022-11-15T16:38:49;14.20;;;14.05;;
23573;SDS011;11965;53.640;10.050;2022-11-15T16:41:15;14.91;;;14.76;;
23573;SDS011;11965;53.640;10.050;2022-11-15T16:43:46;14.58;;;14.53;;
23573;SDS011;11965;53.640;10.050;2022-11-15T16:46:17;14.78;;;14.74;;
23573;SDS011;11965;53.640;10.050;2022-11-15T16:48:48;14.51;;;14.48;;
23573;SDS011;11965;53.640;10.050;2022-11-15T16:51:15;14.73;;;14.66;;
23573;SDS011;11965;53.640;10.050;2022-11-15T16:53:41;14.16;;;14.16;;
23573;SDS011;11965;53.640;10.050;2022-11-15T16:56:19;14.55;;;14.41;;
23573;SDS011;11965;53.640;10.050;2022-11-15T16:58:49;14.14;;;14.07;;
23573;SDS011;11965;53.640;10.050;2022-11-15T17:01:22;14.06;;;14.05;;
23573;SDS011;11965;53.640;10.050;2022-11-15T17:03:49;13.94;;;13.93;;
23573;SDS011;11965;53.640;10.050;2022-11-15T17:06:15;14.06;;;14.02;;
23573;SDS011;11965;53.640;10.050;2022-11-15T17:08:43;14.58;;;14.56;;
23573;SDS011;11965;53.640;10.050;2022-11-15T17:11:18;14.78;;;14.54;;
23573;SDS011;11965;53.640;10.050;2022-11-15T17:13:46;14.43;;;14.41;;
23573;SDS011;11965;53.640;10.050;2022-11-15T17:16:14;14.97;;;14.66;;
23573;SDS011;11965;53.640;10.050;2022-11-15T17:18:42;14.45;;;14.41;;
23573;SDS011;11965;53.640;10.050;2022-11-15T17:21:15;13.86;;;13.86;;
23573;SDS011;11965;53.640;10.050;2022-11-15T17:23:42;13.80;;;13.79;;
23573;SDS011;11965;53.640;10.050;2022-11-15T17:26:10;14.17;;;14.17;;
23573;SDS011;11965;53.640;10.050;2022-11-15T17:28:37;14.56;;;14.53;;
23573;SDS011;11965;53.640;10.050;2022-11-15T17:31:11;13.90;;;13.85;;
23573;SDS011;11965;53.640;10.050;2022-11-15T17:33:38;14.48;;;14.37;;
23573;SDS011;11965;53.640;10.050;2022-11-15T17:36:06;14.54;;;14.34;;
23573;SDS011;11965;53.640;10.050;2022-11-15T17:38:35;14.39;;;14.39;;
23573;SDS011;11965;53.640;10.050;2022-11-15T17:41:08;14.24;;;14.21;;
23573;SDS011;11965;53.640;10.050;2022-11-15T17:43:36;14.48;;;14.38;;
23573;SDS011;11965;53.640;10.050;2022-11-15T17:46:03;14.17;;;14.06;;
23573;SDS011;11965;53.640;10.050;2022-11-15T17:48:31;14.35;;;14.35;;